Time;durP1;ratioP1;P1;durP2;ratioP2;P2;SDS_P1;SDS_P2;PMS_P1;PMS_P2;Temp;Humidity;BMP_temperature;BMP_pressure;BME280_temperature;BME280_humidity;BME280_pressure;Samples;Min_cycle;Max_cycle;Signal;HPM_P1;HPM_P2
2023/07/03 00:00:04;;;;;;;;;;;;;;;22.80;74.67;99087.69;5090638;28;19961;-43
2023/07/03 00:02:30;;;;;;;;;;;;;;;22.71;74.74;99079.44;5090556;28;19969;-42
2023/07/03 00:04:55;;;;;;;;;;;;;;;22.76;74.44;99075.84;5090199;28;19912;-42
2023/07/03 00:07:20;;;;;;;;;;;;;;;22.73;74.44;99085.38;5090358;28;19919;-42
2023/07/03 00:09:46;;;;;;;;;;;;;;;22.65;74.87;99089.56;5090363;28;20061;-42
2023/07/03 00:12:11;;;;;;;;;;;;;;;22.71;74.18;99079.44;5089837;28;19919;-42
2023/07/03 00:14:37;;;;;;;;;;;;;;;22.68;74.92;99081.97;5090122;28;19919;-42
2023/07/03 00:17:03;;;;;;;;;;;;;;;22.43;76.19;99084.03;5090297;28;19916;-42
2023/07/03 00:19:31;;;;;;;;;;;;;;;22.59;75.09;99088.06;5090422;28;19919;-41
2023/07/03 00:22:00;;;;;;;;;;;;;;;22.48;75.23;99092.06;5090490;28;20076;-41
2023/07/03 00:24:26;;;;;;;;;;;;;;;22.50;75.31;99091.75;5090297;28;19969;-42
2023/07/03 00:26:51;;;;;;;;;;;;;;;22.37;76.22;99091.44;5090031;28;19969;-41
2023/07/03 00:29:17;;;;;;;;;;;;;;;22.49;76.28;99098.31;5090303;28;19912;-42
2023/07/03 00:31:42;;;;;;;;;;;;;;;22.37;76.78;99096.03;5090518;28;19998;-42
2023/07/03 00:34:07;;;;;;;;;;;;;;;22.18;76.30;99098.75;5090044;28;19935;-41
2023/07/03 00:36:32;;;;;;;;;;;;;;;22.20;76.52;99096.56;5090294;28;19969;-42
2023/07/03 00:38:59;;;;;;;;;;;;;;;22.22;76.52;99087.06;5090514;28;19995;-42
2023/07/03 00:41:25;;;;;;;;;;;;;;;22.25;75.80;99093.81;5090848;28;19936;-41
2023/07/03 00:43:51;;;;;;;;;;;;;;;22.33;75.65;99095.84;5090735;28;19919;-42
2023/07/03 00:46:16;;;;;;;;;;;;;;;22.25;75.14;99097.31;5090817;28;19935;-42
2023/07/03 00:48:41;;;;;;;;;;;;;;;22.44;74.18;99105.41;5090594;28;20007;-42
2023/07/03 00:51:08;;;;;;;;;;;;;;;22.78;73.65;99104.25;5090474;28;19916;-42
2023/07/03 00:53:34;;;;;;;;;;;;;;;23.41;70.78;99108.19;5090846;28;19919;-42
2023/07/03 00:55:59;;;;;;;;;;;;;;;23.35;69.86;99059.75;5090668;28;19912;-50
2023/07/03 00:58:25;;;;;;;;;;;;;;;23.70;69.49;99101.59;5090645;28;19916;-42
2023/07/03 01:00:55;;;;;;;;;;;;;;;23.57;69.40;99099.72;5090449;28;19912;-43
2023/07/03 01:03:26;;;;;;;;;;;;;;;23.66;69.30;99103.31;5091001;28;19912;-43
2023/07/03 01:05:53;;;;;;;;;;;;;;;23.71;69.58;99102.41;5090395;28;20430;-42
2023/07/03 01:08:19;;;;;;;;;;;;;;;23.64;69.68;99102.03;5090586;28;19935;-43
2023/07/03 01:10:44;;;;;;;;;;;;;;;23.80;68.82;99101.41;5090716;28;19916;-42
2023/07/03 01:13:12;;;;;;;;;;;;;;;23.83;69.10;99097.25;5090590;28;19918;-43
2023/07/03 01:15:39;;;;;;;;;;;;;;;23.87;69.05;99103.69;5090641;28;20014;-43
2023/07/03 01:18:06;;;;;;;;;;;;;;;23.87;68.99;99100.19;5090644;28;19920;-43
2023/07/03 01:20:43;;;;;;;;;;;;;;;23.72;68.19;99102.13;5090461;28;19924;-44
2023/07/03 01:23:15;;;;;;;;;;;;;;;23.78;68.17;99097.38;5090553;28;19974;-43
2023/07/03 01:25:41;;;;;;;;;;;;;;;23.84;68.00;99098.88;5093606;28;19916;-42
2023/07/03 01:28:08;;;;;;;;;;;;;;;23.88;67.81;99104.50;5093954;28;19912;-43
2023/07/03 01:30:34;;;;;;;;;;;;;;;23.86;67.87;99107.53;5093935;28;20339;-42
2023/07/03 01:33:02;;;;;;;;;;;;;;;23.93;67.40;99107.91;5093658;28;20024;-42
2023/07/03 01:35:27;;;;;;;;;;;;;;;23.93;67.48;99107.09;5093648;28;19912;-41
2023/07/03 01:37:54;;;;;;;;;;;;;;;23.66;67.86;99103.31;5093901;28;19912;-42
2023/07/03 01:40:23;;;;;;;;;;;;;;;23.60;68.31;99107.25;5093970;28;20370;-42
2023/07/03 01:42:49;;;;;;;;;;;;;;;23.77;67.33;99107.41;5093647;28;19912;-42
2023/07/03 01:45:15;;;;;;;;;;;;;;;23.68;67.64;99111.16;5093917;28;19920;-44
2023/07/03 01:47:40;;;;;;;;;;;;;;;23.72;67.34;99117.59;5093891;28;19919;-42
2023/07/03 01:50:07;;;;;;;;;;;;;;;23.71;67.90;99116.78;5093669;28;19919;-42
2023/07/03 01:52:35;;;;;;;;;;;;;;;23.65;68.57;99111.78;5093352;28;19995;-43
2023/07/03 01:55:03;;;;;;;;;;;;;;;23.66;68.52;99122.31;5093641;28;20376;-42
2023/07/03 01:57:29;;;;;;;;;;;;;;;23.68;68.36;99122.81;5093353;28;19919;-42
2023/07/03 01:59:55;;;;;;;;;;;;;;;23.73;68.02;99116.50;5093486;28;19916;-42
2023/07/03 02:02:24;;;;;;;;;;;;;;;23.68;67.92;99122.03;5093443;28;19999;-42
2023/07/03 02:04:59;;;;;;;;;;;;;;;23.68;68.09;99120.09;5093432;28;19913;-42
2023/07/03 02:07:27;;;;;;;;;;;;;;;23.76;67.79;99121.28;5093284;28;19916;-42
2023/07/03 02:09:53;;;;;;;;;;;;;;;23.75;67.50;99120.50;5093448;28;19933;-42
2023/07/03 02:12:18;;;;;;;;;;;;;;;23.84;67.09;99122.50;5091761;28;19995;-42
2023/07/03 02:14:43;;;;;;;;;;;;;;;23.68;66.96;99124.75;5093088;28;19919;-42
2023/07/03 02:17:09;;;;;;;;;;;;;;;23.67;67.04;99132.09;5093319;28;20322;-41
2023/07/03 02:19:35;;;;;;;;;;;;;;;23.73;66.70;99124.63;5093433;28;19938;-42
2023/07/03 02:22:00;;;;;;;;;;;;;;;23.74;65.75;99132.50;5092929;28;20396;-42
2023/07/03 02:24:26;;;;;;;;;;;;;;;23.74;65.64;99132.50;5092768;28;19922;-42
2023/07/03 02:26:51;;;;;;;;;;;;;;;23.70;66.54;99136.91;5092521;28;19963;-42
2023/07/03 02:29:17;;;;;;;;;;;;;;;23.65;66.76;99138.94;5093329;28;19915;-42
2023/07/03 02:31:42;;;;;;;;;;;;;;;23.74;66.63;99142.53;5092872;28;20072;-43
2023/07/03 02:34:08;;;;;;;;;;;;;;;23.62;66.19;99141.16;5092419;28;20018;-42
2023/07/03 02:36:34;;;;;;;;;;;;;;;23.80;65.98;99142.16;5091787;28;20006;-43
2023/07/03 02:39:01;;;;;;;;;;;;;;;23.81;66.22;99143.75;5092072;28;19947;-43
2023/07/03 02:41:26;;;;;;;;;;;;;;;23.82;65.94;99152.72;5092411;28;19951;-40
2023/07/03 02:43:52;;;;;;;;;;;;;;;23.80;65.27;99153.03;5091150;28;19969;-41
2023/07/03 02:46:17;;;;;;;;;;;;;;;23.87;65.52;99162.66;5092521;28;19938;-41
2023/07/03 02:48:43;;;;;;;;;;;;;;;23.79;65.37;99158.75;5092592;28;19951;-42
2023/07/03 02:51:08;;;;;;;;;;;;;;;23.57;65.88;99154.84;5092525;28;19912;-43
2023/07/03 02:53:33;;;;;;;;;;;;;;;23.43;66.66;99157.56;5092452;28;19969;-44
2023/07/03 02:55:59;;;;;;;;;;;;;;;23.59;65.85;99155.34;5092412;28;19913;-43
2023/07/03 02:58:24;;;;;;;;;;;;;;;23.57;65.22;99164.88;5092151;28;19916;-43
2023/07/03 03:00:51;;;;;;;;;;;;;;;23.66;64.62;99152.19;5092495;28;20007;-42
2023/07/03 03:03:17;;;;;;;;;;;;;;;22.95;67.25;99151.72;5092350;28;19916;-41
2023/07/03 03:05:42;;;;;;;;;;;;;;;22.95;67.17;99154.41;5091365;28;20445;-43
2023/07/03 03:08:07;;;;;;;;;;;;;;;22.67;67.58;99148.94;5092238;28;19960;-41
2023/07/03 03:10:33;;;;;;;;;;;;;;;22.98;66.60;99159.22;5091899;28;20285;-41
2023/07/03 03:12:58;;;;;;;;;;;;;;;23.02;65.98;99160.25;5091788;28;20029;-41
2023/07/03 03:15:25;;;;;;;;;;;;;;;22.83;66.95;99157.63;5091953;28;20360;-41
2023/07/03 03:17:50;;;;;;;;;;;;;;;22.89;65.83;99159.13;5092140;28;20061;-40
2023/07/03 03:20:16;;;;;;;;;;;;;;;22.63;67.10;99156.84;5091783;28;19951;-42
2023/07/03 03:22:41;;;;;;;;;;;;;;;22.67;66.86;99154.34;5091238;28;19923;-42
2023/07/03 03:25:07;;;;;;;;;;;;;;;23.02;65.28;99150.22;5091325;28;20296;-41
2023/07/03 03:27:32;;;;;;;;;;;;;;;23.44;64.38;99171.97;5092043;28;19912;-42
2023/07/03 03:29:58;;;;;;;;;;;;;;;23.31;64.39;99173.56;5091799;28;19912;-42
2023/07/03 03:32:23;;;;;;;;;;;;;;;23.45;64.16;99175.47;5091797;28;19916;-39
2023/07/03 03:34:50;;;;;;;;;;;;;;;23.45;63.76;99173.53;5091494;28;19916;-42
2023/07/03 03:37:15;;;;;;;;;;;;;;;23.65;63.88;99177.78;5088995;28;20408;-41
2023/07/03 03:39:40;;;;;;;;;;;;;;;23.57;63.80;99181.19;5091369;28;19912;-43
2023/07/03 03:42:06;;;;;;;;;;;;;;;23.56;63.95;99176.88;5091600;28;19969;-40
2023/07/03 03:44:31;;;;;;;;;;;;;;;23.67;63.67;99182.91;5090655;28;19923;-41
2023/07/03 03:46:56;;;;;;;;;;;;;;;23.71;63.76;99183.91;5091218;28;19916;-41
2023/07/03 03:49:22;;;;;;;;;;;;;;;24.00;63.05;99178.13;5091074;28;19969;-42
2023/07/03 03:51:47;;;;;;;;;;;;;;;23.87;63.16;99178.97;5091371;28;20395;-42
2023/07/03 03:54:12;;;;;;;;;;;;;;;24.09;62.66;99186.34;5091266;28;20245;-42
2023/07/03 03:56:38;;;;;;;;;;;;;;;24.51;61.27;99185.09;5091048;28;19947;-41
2023/07/03 03:59:03;;;;;;;;;;;;;;;24.70;61.13;99184.91;5091239;28;19929;-42
2023/07/03 04:01:28;;;;;;;;;;;;;;;25.05;60.09;99192.47;5091444;28;20383;-42
2023/07/03 04:03:54;;;;;;;;;;;;;;;24.97;59.74;99191.31;5091684;28;19973;-41
2023/07/03 04:06:20;;;;;;;;;;;;;;;24.92;59.73;99197.69;5091345;28;20283;-42
2023/07/03 04:08:45;;;;;;;;;;;;;;;25.33;58.13;99193.09;5091221;28;20363;-42
2023/07/03 04:11:11;;;;;;;;;;;;;;;25.51;57.94;99197.47;5089906;28;20291;-41
2023/07/03 04:13:36;;;;;;;;;;;;;;;25.38;58.04;99203.03;5091644;28;19913;-42
2023/07/03 04:16:03;;;;;;;;;;;;;;;25.77;56.87;99199.47;5091773;28;19955;-41
2023/07/03 04:18:29;;;;;;;;;;;;;;;25.41;57.30;99200.47;5091171;28;19912;-41
2023/07/03 04:20:54;;;;;;;;;;;;;;;25.45;57.75;99198.72;5091142;28;19961;-41
2023/07/03 04:23:20;;;;;;;;;;;;;;;26.00;56.33;99207.53;5091216;28;20280;-41
2023/07/03 04:25:45;;;;;;;;;;;;;;;26.28;55.09;99210.75;5090330;28;19959;-42
2023/07/03 04:28:11;;;;;;;;;;;;;;;25.75;56.43;99205.22;5091379;28;19919;-43
2023/07/03 04:30:37;;;;;;;;;;;;;;;26.41;54.85;99207.06;5091256;28;19919;-43
2023/07/03 04:33:03;;;;;;;;;;;;;;;26.51;54.72;99212.19;5090795;28;19924;-41
2023/07/03 04:35:28;;;;;;;;;;;;;;;26.75;54.29;99210.91;5091989;28;20017;-41
2023/07/03 04:37:53;;;;;;;;;;;;;;;26.93;53.15;99211.66;5096048;28;19912;-42
2023/07/03 04:40:19;;;;;;;;;;;;;;;27.14;53.18;99210.97;5090894;28;20371;-40
2023/07/03 04:42:44;;;;;;;;;;;;;;;26.63;54.02;99217.00;5089139;28;19943;-42
2023/07/03 04:45:10;;;;;;;;;;;;;;;27.16;52.87;99211.44;5089999;28;20264;-43
2023/07/03 04:47:38;;;;;;;;;;;;;;;27.54;51.66;99214.19;5106856;28;19961;-42
2023/07/03 04:50:05;;;;;;;;;;;;;;;27.65;51.36;99229.06;5102314;28;19912;-42
2023/07/03 04:52:30;;;;;;;;;;;;;;;27.20;52.20;99221.38;5089374;28;20000;-42
2023/07/03 04:54:56;;;;;;;;;;;;;;;27.57;51.53;99224.47;5089700;28;19963;-43
2023/07/03 04:57:21;;;;;;;;;;;;;;;27.94;50.81;99226.69;5090432;28;19923;-42
2023/07/03 04:59:48;;;;;;;;;;;;;;;28.10;50.26;99230.41;5092453;28;19944;-42
2023/07/03 05:02:17;;;;;;;;;;;;;;;28.32;49.49;99231.22;5094665;28;19919;-42
2023/07/03 05:04:42;;;;;;;;;;;;;;;28.60;48.51;99231.50;5103627;28;19915;-43
2023/07/03 05:07:08;;;;;;;;;;;;;;;28.74;49.21;99236.69;5114360;28;19922;-41
2023/07/03 05:09:33;;;;;;;;;;;;;;;28.52;48.90;99240.56;5114280;28;19977;-41
2023/07/03 05:11:58;;;;;;;;;;;;;;;28.39;48.65;99237.75;5114739;28;19912;-42
2023/07/03 05:14:24;;;;;;;;;;;;;;;28.27;48.96;99240.44;5114250;28;20006;-41
2023/07/03 05:16:49;;;;;;;;;;;;;;;28.75;48.43;99238.25;5114028;28;19912;-41
2023/07/03 05:19:14;;;;;;;;;;;;;;;29.29;47.16;99234.66;5114046;28;19911;-42
2023/07/03 05:21:39;;;;;;;;;;;;;;;29.19;47.21;99236.69;5114024;28;19999;-42
2023/07/03 05:24:05;;;;;;;;;;;;;;;29.35;47.36;99242.31;5112410;28;20026;-42
2023/07/03 05:26:30;;;;;;;;;;;;;;;29.08;47.01;99237.47;5093431;28;19917;-43
2023/07/03 05:28:55;;;;;;;;;;;;;;;29.36;46.90;99240.34;5094349;28;20418;-42
2023/07/03 05:31:23;;;;;;;;;;;;;;;29.39;46.49;99235.00;5096260;28;19923;-41
2023/07/03 05:33:48;;;;;;;;;;;;;;;29.87;46.02;99246.31;5075600;28;19924;-42
2023/07/03 05:36:14;;;;;;;;;;;;;;;30.10;45.58;99249.38;5073224;28;20053;-42
2023/07/03 05:38:39;;;;;;;;;;;;;;;30.42;44.52;99246.00;5073662;28;20383;-43
2023/07/03 05:41:04;;;;;;;;;;;;;;;29.13;46.35;99245.47;5073772;28;19920;-42
2023/07/03 05:43:29;;;;;;;;;;;;;;;29.11;47.56;99248.53;5073528;28;19919;-43
2023/07/03 05:45:55;;;;;;;;;;;;;;;29.14;46.80;99245.13;5079928;28;20398;-42
2023/07/03 05:48:20;;;;;;;;;;;;;;;29.71;45.98;99239.91;5109526;28;19912;-42
2023/07/03 05:50:46;;;;;;;;;;;;;;;30.56;43.92;99249.94;5093897;28;19916;-42
2023/07/03 05:53:12;;;;;;;;;;;;;;;30.94;43.24;99247.88;5089514;28;19920;-42
2023/07/03 05:55:37;;;;;;;;;;;;;;;30.44;43.55;99251.94;5100044;28;19951;-42
2023/07/03 05:58:02;;;;;;;;;;;;;;;30.89;42.85;99251.63;5096842;28;19955;-42
2023/07/03 06:00:30;;;;;;;;;;;;;;;31.30;42.37;99246.00;5092490;28;19912;-41
2023/07/03 06:02:56;;;;;;;;;;;;;;;31.63;41.48;99250.38;5090054;28;19963;-42
2023/07/03 06:05:21;;;;;;;;;;;;;;;30.64;42.95;99231.72;5092753;28;19945;-41
2023/07/03 06:07:47;;;;;;;;;;;;;;;31.13;42.43;99252.66;5092919;28;20356;-41
2023/07/03 06:10:12;;;;;;;;;;;;;;;31.48;41.60;99260.22;5092236;28;19920;-43
2023/07/03 06:12:38;;;;;;;;;;;;;;;31.37;41.81;99257.19;5092819;28;20477;-42
2023/07/03 06:15:03;;;;;;;;;;;;;;;31.67;40.99;99254.00;5092737;28;20397;-42
2023/07/03 06:17:29;;;;;;;;;;;;;;;31.64;40.92;99254.72;5091794;28;20443;-42
2023/07/03 06:19:55;;;;;;;;;;;;;;;31.22;41.63;99247.00;5092779;28;19912;-41
2023/07/03 06:22:21;;;;;;;;;;;;;;;31.04;42.65;99243.78;5092834;28;19916;-41
2023/07/03 06:24:46;;;;;;;;;;;;;;;31.08;42.14;99253.72;5092942;28;20227;-41
2023/07/03 06:27:12;;;;;;;;;;;;;;;30.77;42.65;99260.72;5092655;28;19917;-42
2023/07/03 06:29:37;;;;;;;;;;;;;;;31.52;41.42;99259.16;5097895;28;19917;-41
2023/07/03 06:32:02;;;;;;;;;;;;;;;32.07;40.55;99266.72;5101209;28;19928;-41
2023/07/03 06:34:28;;;;;;;;;;;;;;;31.53;41.11;99266.25;5096056;28;19924;-41
2023/07/03 06:36:53;;;;;;;;;;;;;;;30.89;41.70;99264.56;5092660;28;19916;-42
2023/07/03 06:39:18;;;;;;;;;;;;;;;30.94;42.55;99265.13;5092487;28;19966;-40
2023/07/03 06:41:44;;;;;;;;;;;;;;;31.92;40.82;99262.84;5092645;28;20018;-42
2023/07/03 06:44:13;;;;;;;;;;;;;;;32.01;40.26;99259.91;5096440;28;19920;-44
2023/07/03 06:46:39;;;;;;;;;;;;;;;31.56;40.83;99264.75;5099140;27;19971;-42
2023/07/03 06:49:04;;;;;;;;;;;;;;;31.42;41.53;99269.88;5092563;28;19951;-43
2023/07/03 06:51:30;;;;;;;;;;;;;;;31.45;41.34;99267.19;5083620;28;19919;-42
2023/07/03 06:53:55;;;;;;;;;;;;;;;31.42;41.29;99275.38;5093036;28;19918;-42
2023/07/03 06:56:21;;;;;;;;;;;;;;;31.66;41.05;99269.72;5092917;28;19912;-41
2023/07/03 06:58:48;;;;;;;;;;;;;;;31.66;41.49;99269.72;5092238;28;19916;-42
2023/07/03 07:01:13;;;;;;;;;;;;;;;31.67;40.70;99267.75;5092205;28;19919;-44
2023/07/03 07:03:39;;;;;;;;;;;;;;;32.14;40.28;99264.94;5092146;28;19912;-42
2023/07/03 07:06:09;;;;;;;;;;;;;;;32.71;39.63;99264.53;5092189;28;19916;-40
2023/07/03 07:08:34;;;;;;;;;;;;;;;32.56;39.89;99271.69;5092308;28;19919;-43
2023/07/03 07:10:59;;;;;;;;;;;;;;;31.54;40.78;99270.59;5091515;28;19912;-42
2023/07/03 07:13:25;;;;;;;;;;;;;;;31.41;41.32;99268.28;5091661;28;19923;-42
2023/07/03 07:15:50;;;;;;;;;;;;;;;32.12;40.08;99269.19;5091397;28;19915;-41
2023/07/03 07:18:15;;;;;;;;;;;;;;;32.62;39.97;99270.28;5091489;28;19916;-43
2023/07/03 07:20:40;;;;;;;;;;;;;;;33.00;39.13;99270.59;5091893;28;19919;-42
2023/07/03 07:23:06;;;;;;;;;;;;;;;31.54;41.75;99273.34;5091135;28;19912;-42
2023/07/03 07:25:32;;;;;;;;;;;;;;;32.31;40.18;99268.41;5091426;28;19920;-43
2023/07/03 07:27:57;;;;;;;;;;;;;;;32.71;39.37;99265.34;5091498;28;20011;-43
2023/07/03 07:30:23;;;;;;;;;;;;;;;33.15;38.45;99277.16;5090651;28;19916;-41
2023/07/03 07:32:49;;;;;;;;;;;;;;;32.89;38.82;99265.66;5090378;28;19924;-43
2023/07/03 07:35:15;;;;;;;;;;;;;;;33.34;37.50;99273.56;5091959;28;20000;-44
2023/07/03 07:37:40;;;;;;;;;;;;;;;33.22;37.75;99272.56;5091273;28;20416;-42
2023/07/03 07:40:06;;;;;;;;;;;;;;;32.22;39.63;99270.59;5091671;28;19920;-42
2023/07/03 07:42:31;;;;;;;;;;;;;;;33.12;38.41;99278.69;5088764;28;19912;-43
2023/07/03 07:44:57;;;;;;;;;;;;;;;33.64;38.33;99271.75;5091657;28;19985;-43
2023/07/03 07:47:22;;;;;;;;;;;;;;;34.08;37.72;99276.72;5091095;28;19916;-42
2023/07/03 07:49:47;;;;;;;;;;;;;;;33.08;37.68;99275.06;5091270;28;20306;-42
2023/07/03 07:52:15;;;;;;;;;;;;;;;33.55;37.39;99273.94;5091666;28;20389;-44
2023/07/03 07:54:40;;;;;;;;;;;;;;;32.45;38.99;99274.22;5091388;28;19972;-41
2023/07/03 07:57:05;;;;;;;;;;;;;;;32.72;38.47;99282.66;5091356;28;19928;-42
2023/07/03 07:59:33;;;;;;;;;;;;;;;32.86;38.80;99277.44;5089154;28;20301;-46
2023/07/03 08:01:58;;;;;;;;;;;;;;;33.67;36.86;99276.50;5088153;28;19916;-42
2023/07/03 08:04:23;;;;;;;;;;;;;;;34.00;36.80;99282.50;5088785;28;19912;-42
2023/07/03 08:06:48;;;;;;;;;;;;;;;33.06;37.80;99283.69;5090650;28;19959;-41
2023/07/03 08:09:14;;;;;;;;;;;;;;;33.48;37.57;99271.84;5090219;28;19912;-42
2023/07/03 08:11:43;;;;;;;;;;;;;;;34.01;37.27;99275.81;5090438;28;20439;-43
2023/07/03 08:14:08;;;;;;;;;;;;;;;34.18;36.79;99283.56;5090849;28;19916;-42
2023/07/03 08:16:33;;;;;;;;;;;;;;;34.24;35.97;99281.28;5090502;28;19977;-43
2023/07/03 08:18:59;;;;;;;;;;;;;;;34.73;34.54;99282.28;5090505;28;19924;-43
2023/07/03 08:21:24;;;;;;;;;;;;;;;34.99;35.42;99284.16;5090672;28;20273;-42
2023/07/03 08:23:49;;;;;;;;;;;;;;;34.40;34.76;99275.56;5090012;28;19927;-45
2023/07/03 08:26:19;;;;;;;;;;;;;;;34.24;35.06;99286.81;5090443;28;20503;-41
2023/07/03 08:28:44;;;;;;;;;;;;;;;34.88;34.83;99289.59;5090454;28;20346;-43
2023/07/03 08:31:09;;;;;;;;;;;;;;;35.10;33.77;99287.81;5090883;28;20007;-42
2023/07/03 08:33:35;;;;;;;;;;;;;;;35.20;33.62;99294.66;5090665;28;19986;-42
2023/07/03 08:36:00;;;;;;;;;;;;;;;34.46;34.90;99282.34;5094381;28;19938;-42
2023/07/03 08:38:25;;;;;;;;;;;;;;;34.56;34.58;99289.97;5094426;28;19916;-43
2023/07/03 08:40:58;;;;;;;;;;;;;;;34.17;35.55;99287.50;5094628;28;19912;-41
2023/07/03 08:43:27;;;;;;;;;;;;;;;34.60;34.72;99290.81;5093255;28;19916;-40
2023/07/03 08:45:53;;;;;;;;;;;;;;;35.20;33.93;99291.88;5094423;28;19916;-41
2023/07/03 08:48:22;;;;;;;;;;;;;;;35.03;33.33;99288.56;5094461;28;20322;-42
2023/07/03 08:50:50;;;;;;;;;;;;;;;34.97;33.60;99280.97;5094515;28;19912;-42
2023/07/03 08:53:18;;;;;;;;;;;;;;;35.48;32.36;99280.28;5094485;28;20006;-42
2023/07/03 08:55:56;;;;;;;;;;;;;;;35.35;31.83;99281.75;5094243;28;20383;-42
2023/07/03 08:58:21;;;;;;;;;;;;;;;35.39;31.35;99291.66;5094393;28;19912;-42
2023/07/03 09:00:52;;;;;;;;;;;;;;;35.15;32.40;99281.16;5094120;28;19912;-41
2023/07/03 09:03:23;;;;;;;;;;;;;;;35.56;32.68;99286.66;5104059;28;19911;-41
2023/07/03 09:06:06;;;;;;;;;;;;;;;35.66;31.77;99285.94;5114694;28;19915;-42
2023/07/03 09:08:37;;;;;;;;;;;;;;;35.52;32.37;99286.63;5114996;28;19979;-43
2023/07/03 09:11:03;;;;;;;;;;;;;;;35.49;31.33;99278.31;5114574;28;20291;-41
2023/07/03 09:13:39;;;;;;;;;;;;;;;35.57;31.56;99277.19;5098522;28;19916;-41
2023/07/03 09:16:13;;;;;;;;;;;;;;;35.76;31.74;99278.94;5094109;28;20391;-43
2023/07/03 09:18:43;;;;;;;;;;;;;;;35.50;30.71;99277.13;5093873;28;19919;-42
2023/07/03 09:21:08;;;;;;;;;;;;;;;35.49;30.39;99275.53;5094218;28;19912;-42
2023/07/03 09:23:44;;;;;;;;;;;;;;;35.37;30.62;99273.88;5093171;28;20006;-42
2023/07/03 09:26:10;;;;;;;;;;;;;;;35.73;30.79;99272.19;5090292;28;19942;-42
2023/07/03 09:28:37;;;;;;;;;;;;;;;35.39;31.69;99274.28;5093526;28;20414;-44
2023/07/03 09:31:02;;;;;;;;;;;;;;;35.04;31.30;99270.78;5093548;28;19916;-42
2023/07/03 09:33:28;;;;;;;;;;;;;;;35.19;30.72;99271.75;5092714;28;19924;-42
2023/07/03 09:35:53;;;;;;;;;;;;;;;35.11;31.31;99270.06;5094182;28;20401;-43
2023/07/03 09:38:23;;;;;;;;;;;;;;;34.91;31.77;99263.94;5094259;28;20295;-43
2023/07/03 09:40:49;;;;;;;;;;;;;;;35.28;31.44;99270.63;5094098;28;20367;-43
2023/07/03 09:43:18;;;;;;;;;;;;;;;35.43;30.20;99264.03;5094290;28;19961;-44
2023/07/03 09:45:44;;;;;;;;;;;;;;;35.12;30.97;99262.56;5091163;28;19924;-42
2023/07/03 09:48:22;;;;;;;;;;;;;;;35.20;31.57;99253.97;5093665;28;20033;-43
2023/07/03 09:50:48;;;;;;;;;;;;;;;35.46;30.09;99259.72;5093670;28;19912;-41
2023/07/03 09:53:18;;;;;;;;;;;;;;;35.71;30.24;99252.41;5090530;28;19920;-41
2023/07/03 09:55:44;;;;;;;;;;;;;;;35.49;30.12;99247.88;5093898;28;19938;-42
2023/07/03 09:58:11;;;;;;;;;;;;;;;35.66;30.45;99243.66;5093851;28;19916;-41
2023/07/03 10:00:42;;;;;;;;;;;;;;;35.96;29.77;99249.78;5093836;28;19933;-43
2023/07/03 10:03:07;;;;;;;;;;;;;;;35.88;28.87;99242.63;5102156;28;19920;-42
2023/07/03 10:05:33;;;;;;;;;;;;;;;36.04;30.12;99247.84;5113978;28;20447;-43
2023/07/03 10:08:03;;;;;;;;;;;;;;;35.79;30.13;99244.94;5100995;28;20439;-42
2023/07/03 10:10:32;;;;;;;;;;;;;;;35.93;30.11;99242.28;5092785;28;19912;-43
2023/07/03 10:12:58;;;;;;;;;;;;;;;36.10;29.81;99248.28;5092651;28;19984;-42
2023/07/03 10:15:26;;;;;;;;;;;;;;;36.21;30.13;99249.16;5092779;28;19994;-41
2023/07/03 10:17:55;;;;;;;;;;;;;;;36.39;28.66;99235.41;5092534;28;20020;-42
2023/07/03 10:20:23;;;;;;;;;;;;;;;36.20;29.75;99248.38;5092753;28;20029;-43
2023/07/03 10:22:49;;;;;;;;;;;;;;;36.33;29.33;99234.19;5092458;28;19912;-42
2023/07/03 10:25:20;;;;;;;;;;;;;;;36.18;30.26;99241.66;5092384;28;19995;-41
2023/07/03 10:27:47;;;;;;;;;;;;;;;36.59;28.80;99246.91;5092789;28;19919;-42
2023/07/03 10:30:18;;;;;;;;;;;;;;;36.60;27.80;99241.00;5092581;28;19916;-42
2023/07/03 10:32:45;;;;;;;;;;;;;;;36.23;28.50;99232.16;5092716;28;19920;-42
2023/07/03 10:35:16;;;;;;;;;;;;;;;35.95;29.40;99239.91;5092971;28;20424;-42
2023/07/03 10:37:50;;;;;;;;;;;;;;;35.89;29.56;99237.88;5092713;28;19912;-43
2023/07/03 10:40:19;;;;;;;;;;;;;;;36.04;28.97;99234.00;5093159;28;19935;-43
2023/07/03 10:43:03;;;;;;;;;;;;;;;36.07;28.46;99224.94;5086949;28;19940;-43
2023/07/03 10:45:30;;;;;;;;;;;;;;;36.16;28.07;99222.63;5084589;28;19964;-41
2023/07/03 10:47:59;;;;;;;;;;;;;;;36.10;28.45;99218.63;5092994;28;20411;-43
2023/07/03 10:50:31;;;;;;;;;;;;;;;36.10;29.02;99228.91;5092605;28;19955;-42
2023/07/03 10:53:03;;;;;;;;;;;;;;;36.06;28.33;99225.31;5091948;28;20264;-43
2023/07/03 10:55:33;;;;;;;;;;;;;;;35.85;28.46;99220.47;5091488;28;19919;-43
2023/07/03 10:58:05;;;;;;;;;;;;;;;36.11;28.45;99213.88;5091379;28;19919;-43
2023/07/03 11:00:49;;;;;;;;;;;;;;;36.54;26.99;99214.88;5091710;28;20045;-42
2023/07/03 11:03:33;;;;;;;;;;;;;;;36.57;27.88;99214.06;5091101;28;20319;-42
2023/07/03 11:06:03;;;;;;;;;;;;;;;36.76;27.69;99207.41;5090572;28;19917;-42
2023/07/03 11:08:31;;;;;;;;;;;;;;;36.66;26.09;99213.72;5090884;28;20307;-41
2023/07/03 11:10:56;;;;;;;;;;;;;;;35.80;27.60;99216.91;5091451;28;19916;-43
2023/07/03 11:13:27;;;;;;;;;;;;;;;35.74;26.66;99201.06;5091489;28;19985;-43
2023/07/03 11:16:11;;;;;;;;;;;;;;;35.96;27.96;99196.41;5091376;28;19912;-41
2023/07/03 11:18:38;;;;;;;;;;;;;;;36.28;27.86;99195.78;5091574;28;19916;-43
2023/07/03 11:21:12;;;;;;;;;;;;;;;36.66;27.10;99207.41;5091662;28;19970;-42
2023/07/03 11:23:58;;;;;;;;;;;;;;;36.57;27.08;99197.44;5091434;28;19969;-44
2023/07/03 11:26:39;;;;;;;;;;;;;;;36.19;28.11;99191.41;5090995;28;20006;-43
2023/07/03 11:29:08;;;;;;;;;;;;;;;36.33;27.90;99195.41;5091276;28;20449;-44
2023/07/03 11:31:34;;;;;;;;;;;;;;;36.16;28.50;99189.38;5091332;28;20325;-42
2023/07/03 11:34:00;;;;;;;;;;;;;;;36.39;28.29;99189.09;5091254;28;20022;-43
2023/07/03 11:36:42;;;;;;;;;;;;;;;36.43;27.59;99188.31;5091515;28;19912;-42
2023/07/03 11:39:14;;;;;;;;;;;;;;;35.87;27.45;99187.66;5091311;28;19912;-42
2023/07/03 11:41:49;;;;;;;;;;;;;;;35.77;26.76;99183.66;5091182;28;19919;-42
2023/07/03 11:44:15;;;;;;;;;;;;;;;35.70;26.33;99186.38;5091193;28;19912;-43
2023/07/03 11:46:41;;;;;;;;;;;;;;;35.71;25.41;99186.00;5091045;28;19926;-42
2023/07/03 11:49:10;;;;;;;;;;;;;;;35.16;25.89;99184.00;5091259;28;20010;-43
2023/07/03 11:51:37;;;;;;;;;;;;;;;34.85;26.61;99183.34;5091217;28;19913;-42
2023/07/03 11:54:14;;;;;;;;;;;;;;;35.17;26.99;99182.88;5091390;28;19999;-42
2023/07/03 11:56:39;;;;;;;;;;;;;;;35.26;26.67;99184.50;5091193;28;19920;-42
2023/07/03 11:59:25;;;;;;;;;;;;;;;35.28;27.31;99190.44;5090979;28;19976;-42
2023/07/03 12:02:10;;;;;;;;;;;;;;;35.55;27.87;99178.00;5091092;28;19922;-42
2023/07/03 12:04:44;;;;;;;;;;;;;;;35.14;27.03;99180.03;5091092;28;20301;-43
2023/07/03 12:07:30;;;;;;;;;;;;;;;34.43;27.26;99178.16;5090690;28;19965;-43
2023/07/03 12:10:18;;;;;;;;;;;;;;;34.88;27.67;99186.53;5070162;28;19916;-45
2023/07/03 12:13:04;;;;;;;;;;;;;;;35.29;27.39;99187.28;5082845;28;19920;-42
2023/07/03 12:15:29;;;;;;;;;;;;;;;34.91;27.16;99181.03;5090387;28;19912;-43
2023/07/03 12:18:00;;;;;;;;;;;;;;;35.18;26.61;99176.13;5090636;28;19908;-43
2023/07/03 12:20:25;;;;;;;;;;;;;;;35.01;26.90;99171.25;5090411;28;19912;-42
2023/07/03 12:22:51;;;;;;;;;;;;;;;34.93;27.16;99175.13;5090676;28;19976;-42
2023/07/03 12:25:18;;;;;;;;;;;;;;;35.16;26.49;99174.91;5094876;28;19916;-43
2023/07/03 12:27:43;;;;;;;;;;;;;;;35.59;27.04;99172.47;5090901;28;19939;-41
2023/07/03 12:30:10;;;;;;;;;;;;;;;35.94;26.29;99171.09;5090377;28;20237;-42
2023/07/03 12:32:36;;;;;;;;;;;;;;;35.91;25.94;99169.91;5090005;28;19934;-40
2023/07/03 12:35:11;;;;;;;;;;;;;;;35.86;26.03;99163.97;5090665;28;20002;-43
2023/07/03 12:37:41;;;;;;;;;;;;;;;35.72;26.37;99175.72;5090603;28;19977;-41
2023/07/03 12:40:07;;;;;;;;;;;;;;;35.94;26.75;99163.59;5090261;28;19916;-41
2023/07/03 12:42:32;;;;;;;;;;;;;;;36.03;26.21;99168.00;5089978;28;19969;-44
2023/07/03 12:45:09;;;;;;;;;;;;;;;36.36;25.89;99169.69;5090191;28;19916;-43
2023/07/03 12:47:35;;;;;;;;;;;;;;;36.80;25.16;99171.38;5090563;28;20320;-43